Time;durP1;ratioP1;P1;durP2;ratioP2;P2;SDS_P1;SDS_P2;PMS_P1;PMS_P2;Temp;Humidity;BMP_temperature;BMP_pressure;BME280_temperature;BME280_humidity;BME280_pressure;Samples;Min_cycle;Max_cycle;Signal;HPM_P1;HPM_P2
2023/10/02 00:05:07;;;;;;;10.98;5.60;;;;;;;15.79;73.96;100624.94;6156805;23;20013;-90
2023/10/02 00:07:35;;;;;;;10.48;5.65;;;;;;;15.80;73.75;100626.63;6154382;23;20456;-90
2023/10/02 00:10:04;;;;;;;14.07;5.93;;;;;;;15.76;73.75;100625.25;6154795;23;20020;-89
2023/10/02 00:12:34;;;;;;;15.80;5.28;;;;;;;15.78;73.43;100625.09;6179695;23;20017;-90
2023/10/02 00:15:13;;;;;;;12.32;5.78;;;;;;;15.71;73.35;100630.22;6178671;23;20082;-91
2023/10/02 00:17:43;;;;;;;12.35;5.93;;;;;;;15.72;73.54;100631.03;6156935;23;21356;-90
2023/10/02 00:20:19;;;;;;;14.07;5.57;;;;;;;15.62;73.75;100631.94;6155567;23;20099;-90
2023/10/02 00:22:46;;;;;;;13.85;6.40;;;;;;;15.59;74.02;100629.53;6154580;23;20031;-90
2023/10/02 00:25:19;;;;;;;11.48;5.50;;;;;;;15.56;73.88;100626.31;6178507;23;20024;-89
2023/10/02 00:27:50;;;;;;;12.50;5.25;;;;;;;15.54;74.13;100622.94;6156407;23;20012;-90
2023/10/02 00:30:20;;;;;;;12.88;5.47;;;;;;;15.57;73.94;100627.97;6179805;23;20092;-89
2023/10/02 00:32:50;;;;;;;11.98;5.55;;;;;;;15.59;73.73;100616.13;6178934;23;20017;-90
2023/10/02 00:35:17;;;;;;;9.70;5.63;;;;;;;15.59;73.58;100616.13;6204264;23;20108;-90
2023/10/02 00:37:44;;;;;;;13.18;5.35;;;;;;;15.61;73.40;100618.69;6179450;23;20441;-90
2023/10/02 00:40:22;;;;;;;11.68;5.18;;;;;;;15.54;73.05;100606.88;6154180;23;20031;-90
2023/10/02 00:43:33;;;;;;;13.35;5.43;;;;;;;15.56;73.11;100610.25;6180384;23;20075;-90
2023/10/02 00:45:49;;;;;;;14.07;5.80;;;;;;;15.51;73.26;100599.97;6159962;23;20445;-90
2023/10/02 00:48:26;;;;;;;13.82;5.82;;;;;;;15.50;73.43;100608.19;6130065;23;20012;-90
2023/10/02 00:50:54;;;;;;;14.73;6.07;;;;;;;15.50;73.54;100606.34;6156104;23;20802;-91
2023/10/02 00:53:38;;;;;;;12.80;5.47;;;;;;;15.46;73.20;100610.28;6155188;23;20025;-90
2023/10/02 00:56:28;;;;;;;13.07;5.75;;;;;;;15.44;73.20;100601.56;6156994;23;20024;-90
2023/10/02 00:59:14;;;;;;;12.77;5.25;;;;;;;15.48;73.18;100610.16;6182135;23;20029;-90
2023/10/02 01:01:41;;;;;;;12.50;6.20;;;;;;;15.44;73.39;100606.09;6133583;23;20096;-90
2023/10/02 01:04:23;;;;;;;17.30;5.38;;;;;;;15.43;73.42;100601.72;6203226;23;20360;-91
2023/10/02 01:06:57;;;;;;;12.10;4.85;;;;;;;15.42;73.24;100606.25;6130953;23;20063;-90
2023/10/02 01:09:26;;;;;;;;;;;;;;;15.14;73.58;100603.53;6180579;23;20042;-90
2023/10/02 01:11:57;;;;;;;11.07;5.07;;;;;;;15.35;73.11;100602.47;6179820;23;19923;-91
2023/10/02 01:14:40;;;;;;;11.70;5.32;;;;;;;15.37;73.09;100606.69;6203209;23;20036;-91
2023/10/02 01:17:08;;;;;;;12.90;5.32;;;;;;;15.35;73.21;100611.34;6156955;23;20032;-89
2023/10/02 01:19:54;;;;;;;13.38;5.95;;;;;;;15.34;72.80;100614.16;6179603;23;20023;-88
2023/10/02 01:22:27;;;;;;;11.55;5.20;;;;;;;15.28;72.72;100606.72;6203766;23;20024;-90
2023/10/02 01:25:06;;;;;;;12.30;5.32;;;;;;;15.31;72.96;100620.63;6178287;23;20468;-89
2023/10/02 01:27:42;;;;;;;12.00;5.47;;;;;;;15.27;72.73;100613.06;6155532;23;20012;-90
2023/10/02 01:30:15;;;;;;;10.40;5.00;;;;;;;15.28;72.60;100623.63;6154097;23;20095;-90
2023/10/02 01:33:06;;;;;;;16.08;6.07;;;;;;;15.21;72.47;100619.84;6180390;23;20024;-90
2023/10/02 01:35:36;;;;;;;13.93;6.35;;;;;;;15.26;72.95;100614.03;6181516;23;20099;-91
2023/10/02 01:38:12;;;;;;;10.57;5.68;;;;;;;15.27;72.40;100613.91;6178589;23;20440;-90
2023/10/02 01:40:43;;;;;;;16.77;6.13;;;;;;;15.23;72.50;100617.84;6180956;23;20023;-90
2023/10/02 01:43:12;;;;;;;13.00;4.90;;;;;;;15.20;72.50;100621.66;6202941;23;20449;-90
2023/10/02 01:45:44;;;;;;;13.63;5.40;;;;;;;15.16;72.61;100625.66;6153773;23;20382;-90
2023/10/02 01:48:14;;;;;;;12.80;5.70;;;;;;;15.18;72.79;100622.81;6154229;23;20095;-90
2023/10/02 01:50:45;;;;;;;11.52;5.38;;;;;;;15.19;72.79;100624.50;6154236;23;20028;-89
2023/10/02 01:53:29;;;;;;;13.88;5.45;;;;;;;15.16;72.63;100627.44;6156983;23;20727;-91
2023/10/02 01:56:00;;;;;;;12.25;5.30;;;;;;;15.14;72.87;100622.28;6185542;23;20318;-90
2023/10/02 01:58:28;;;;;;;8.50;4.93;;;;;;;15.13;72.85;100619.72;6205183;23;20406;-90
2023/10/02 02:00:57;;;;;;;12.18;5.45;;;;;;;15.12;72.84;100626.06;6155170;23;20172;-89
2023/10/02 02:03:28;;;;;;;14.13;5.28;;;;;;;15.04;72.67;100626.81;6155381;23;20091;-90
2023/10/02 02:05:55;;;;;;;12.02;5.25;;;;;;;15.06;72.59;100626.63;6156092;23;20013;-89
2023/10/02 02:08:22;;;;;;;11.50;5.32;;;;;;;15.05;72.46;100630.31;6206172;23;20044;-91
2023/10/02 02:10:54;;;;;;;12.73;4.88;;;;;;;15.01;72.14;100636.94;6181786;23;20047;-90
2023/10/02 02:13:22;;;;;;;11.67;5.03;;;;;;;15.05;72.65;100627.63;6180305;23;20023;-90
2023/10/02 02:16:06;;;;;;;10.32;5.18;;;;;;;15.05;72.17;100630.31;6156699;23;20797;-90
2023/10/02 02:18:33;;;;;;;12.52;5.18;;;;;;;15.03;72.63;100621.59;6160396;23;20472;-91
2023/10/02 02:21:02;;;;;;;14.93;5.85;;;;;;;15.04;72.49;100621.47;6180523;23;20083;-90
2023/10/02 02:23:31;;;;;;;13.68;5.13;;;;;;;15.02;72.53;100623.44;6154585;23;20021;-91
2023/10/02 02:25:59;;;;;;;10.45;5.25;;;;;;;15.02;72.27;100618.06;6155871;23;20024;-90
2023/10/02 02:28:28;;;;;;;12.05;6.07;;;;;;;14.98;72.26;100617.53;6181291;23;20078;-90
2023/10/02 02:30:55;;;;;;;14.02;5.65;;;;;;;14.97;72.30;100620.34;6155683;23;20027;-90
2023/10/02 02:33:38;;;;;;;11.13;5.15;;;;;;;14.95;72.05;100617.81;6179819;23;20092;-91
2023/10/02 02:36:05;;;;;;;10.88;4.68;;;;;;;14.87;72.41;100617.69;6183589;23;20059;-89
2023/10/02 02:38:33;;;;;;;12.90;5.78;;;;;;;14.86;72.37;100616.00;6180829;23;20087;-91
2023/10/02 02:41:07;;;;;;;12.20;5.72;;;;;;;14.80;72.28;100626.44;6179720;23;20029;-89
2023/10/02 02:43:38;;;;;;;9.50;4.95;;;;;;;14.84;72.30;100620.66;6180756;23;20079;-91
2023/10/02 02:46:06;;;;;;;10.00;5.65;;;;;;;14.81;72.56;100612.06;6181845;23;20051;-90
2023/10/02 02:48:43;;;;;;;12.25;5.35;;;;;;;14.77;72.70;100620.38;6206078;23;20491;-90
2023/10/02 02:51:21;;;;;;;13.98;5.13;;;;;;;14.81;72.63;100617.41;6156999;23;20028;-90
2023/10/02 02:53:51;;;;;;;15.82;6.03;;;;;;;14.81;72.75;100615.59;6159632;23;20029;-91
2023/10/02 02:56:24;;;;;;;11.55;5.43;;;;;;;14.82;72.96;100613.78;6131724;23;20077;-91
2023/10/02 02:58:55;;;;;;;10.45;5.07;;;;;;;14.78;72.99;100626.56;6132026;23;20013;-90
2023/10/02 03:01:22;;;;;;;11.30;5.15;;;;;;;14.75;72.82;100621.50;6181904;23;20610;-90
2023/10/02 03:03:55;;;;;;;10.45;5.45;;;;;;;14.74;72.99;100619.84;6131688;23;20028;-90
2023/10/02 03:06:24;;;;;;;10.10;5.20;;;;;;;14.71;72.92;100620.97;6132444;23;20024;-90
2023/10/02 03:08:52;;;;;;;12.20;4.82;;;;;;;14.70;72.96;100624.59;6155838;23;20028;-90
2023/10/02 03:11:22;;;;;;;12.50;5.28;;;;;;;14.69;73.11;100624.78;6178937;23;20614;-90
2023/10/02 03:13:49;;;;;;;12.00;5.03;;;;;;;14.67;73.05;100621.38;6154822;23;20032;-84
2023/10/02 03:16:19;;;;;;;10.13;5.15;;;;;;;14.60;73.19;100622.94;6204085;23;20021;-84
2023/10/02 03:18:48;;;;;;;12.73;5.00;;;;;;;14.62;72.75;100624.47;6180368;23;20354;-85
2023/10/02 03:21:22;;;;;;;11.43;5.07;;;;;;;14.60;72.53;100621.09;6178749;23;20396;-85
2023/10/02 03:23:51;;;;;;;10.20;4.95;;;;;;;14.64;72.63;100622.53;6181423;23;20025;-85
2023/10/02 03:26:37;;;;;;;13.63;5.47;;;;;;;14.63;72.45;100619.97;6155033;23;20025;-85
2023/10/02 03:29:16;;;;;;;12.10;5.43;;;;;;;14.52;72.27;100616.44;6204635;23;20079;-85
2023/10/02 03:31:49;;;;;;;12.50;4.97;;;;;;;14.54;72.63;100611.84;6180348;23;20027;-85
2023/10/02 03:34:29;;;;;;;10.82;5.05;;;;;;;14.49;72.61;100613.22;6203531;23;20025;-86
2023/10/02 03:39:59;;;;;;;10.60;4.80;;;;;;;14.50;72.11;100613.09;6206256;23;20074;-85
2023/10/02 03:42:32;;;;;;;9.38;4.38;;;;;;;14.47;72.36;100607.16;6158537;23;20074;-85
2023/10/02 03:45:03;;;;;;;12.15;5.20;;;;;;;14.50;72.68;100612.22;6154077;23;20020;-85
2023/10/02 03:47:35;;;;;;;;;;;;;;;14.23;73.36;100615.63;6152179;23;20020;-85
2023/10/02 03:50:07;;;;;;;11.52;4.97;;;;;;;14.45;72.84;100619.81;6179841;23;19924;-85
2023/10/02 03:52:34;;;;;;;13.68;5.25;;;;;;;14.43;72.56;100608.47;6178467;23;20090;-85
2023/10/02 03:55:14;;;;;;;12.27;5.68;;;;;;;14.49;72.58;100619.41;6153974;23;20024;-84
2023/10/02 03:57:49;;;;;;;10.25;5.03;;;;;;;14.46;72.99;100614.34;6158238;23;20026;-85
2023/10/02 04:00:23;;;;;;;13.10;6.10;;;;;;;14.45;72.70;100611.81;6156489;23;20020;-85
2023/10/02 04:02:52;;;;;;;10.32;5.25;;;;;;;14.43;72.53;100619.16;6154898;23;20062;-88
2023/10/02 04:05:31;;;;;;;10.07;4.97;;;;;;;14.42;72.24;100604.06;6095573;23;20032;-87
2023/10/02 04:08:27;;;;;;;8.73;5.10;;;;;;;14.39;72.35;100613.22;6103277;23;20024;-87
2023/10/02 04:10:56;;;;;;;13.75;5.05;;;;;;;14.38;72.45;100608.88;6143070;23;20048;-88
2023/10/02 04:13:33;;;;;;;12.32;5.03;;;;;;;14.36;72.29;100616.19;6174796;23;20059;-88
2023/10/02 04:19:02;;;;;;;13.02;5.47;;;;;;;14.30;72.62;100614.91;6160318;23;20032;-89
2023/10/02 04:21:33;;;;;;;9.05;4.57;;;;;;;14.36;72.98;100616.19;6180222;23;20628;-87
2023/10/02 04:24:09;;;;;;;10.32;4.65;;;;;;;14.30;73.03;100603.41;6115835;23;20052;-88
2023/10/02 04:26:44;;;;;;;10.50;5.00;;;;;;;14.29;72.97;100604.38;6116756;23;20111;-87
2023/10/02 04:31:41;;;;;;;8.68;4.85;;;;;;;14.26;72.76;100610.00;6143807;23;20099;-87
2023/10/02 04:34:29;;;;;;;12.20;5.47;;;;;;;14.27;72.82;100615.22;6180836;23;20047;-87
2023/10/02 04:36:56;;;;;;;10.15;4.30;;;;;;;14.24;72.38;100617.28;6113829;23;20392;-87
2023/10/02 04:42:19;;;;;;;11.07;5.28;;;;;;;14.19;72.03;100616.88;6156859;23;20021;-86
2023/10/02 04:44:48;;;;;;;13.50;4.75;;;;;;;14.23;72.46;100616.47;6181212;23;20094;-87
2023/10/02 04:47:17;;;;;;;11.60;4.97;;;;;;;14.20;72.02;100614.06;6156635;23;20028;-87
2023/10/02 04:53:04;;;;;;;10.10;5.07;;;;;;;14.13;71.70;100620.13;6204262;23;20028;-86
2023/10/02 04:55:43;;;;;;;12.32;4.80;;;;;;;14.13;71.75;100620.94;6183895;23;20052;-86
2023/10/02 04:58:19;;;;;;;9.65;5.15;;;;;;;14.12;71.88;100621.94;6202468;23;20051;-86
2023/10/02 05:03:36;;;;;;;10.88;4.88;;;;;;;14.05;71.81;100616.31;6181829;23;20027;-85
2023/10/02 05:06:04;;;;;;;9.70;4.50;;;;;;;14.06;72.16;100627.84;6203085;23;20016;-86
2023/10/02 05:09:19;;;;;;;12.40;5.30;;;;;;;14.08;71.98;100626.72;6205156;23;20074;-86
2023/10/02 05:11:50;;;;;;;9.88;4.72;;;;;;;14.08;71.76;100616.03;6204002;23;20020;-85
2023/10/02 05:14:26;;;;;;;10.38;4.85;;;;;;;14.03;71.89;100618.28;6200402;23;20024;-86
2023/10/02 05:22:45;;;;;;;11.73;5.03;;;;;;;13.98;71.69;100609.00;6163157;23;20075;-86
2023/10/02 05:25:18;;;;;;;10.25;4.65;;;;;;;13.98;71.93;100615.16;6175652;23;20640;-86
2023/10/02 05:27:47;;;;;;;12.10;5.25;;;;;;;13.95;72.03;100617.28;6203235;23;20036;-86
2023/10/02 05:30:17;;;;;;;9.82;4.70;;;;;;;13.93;71.91;100622.75;6201003;23;20066;-86
2023/10/02 05:32:44;;;;;;;9.55;5.15;;;;;;;13.94;71.78;100616.41;6201421;23;20028;-86
2023/10/02 05:37:48;;;;;;;9.63;4.50;;;;;;;13.92;72.14;100625.56;6177474;23;20082;-86
2023/10/02 05:50:53;;;;;;;11.35;4.82;;;;;;;13.92;72.94;100641.56;6178320;23;20095;-86
2023/10/02 05:53:25;;;;;;;8.57;4.75;;;;;;;13.93;72.90;100641.44;6175311;23;20475;-86
2023/10/02 05:58:42;;;;;;;14.80;5.43;;;;;;;13.88;72.85;100638.34;6180065;23;20040;-86
2023/10/02 06:01:26;;;;;;;10.20;5.47;;;;;;;13.91;72.55;100643.41;6200981;23;20499;-86
2023/10/02 06:04:00;;;;;;;;;;;;;;;13.73;73.49;100645.06;6203314;23;20095;-86
2023/10/02 06:06:31;;;;;;;10.48;4.90;;;;;;;13.93;72.77;100640.59;6202208;23;20247;-86
2023/10/02 06:09:03;;;;;;;11.75;5.43;;;;;;;13.89;72.93;100646.22;6177880;23;20070;-85
2023/10/02 06:11:33;;;;;;;12.93;5.75;;;;;;;13.93;73.08;100641.44;6203360;23;20111;-86
2023/10/02 06:14:11;;;;;;;11.00;5.03;;;;;;;13.92;73.17;100644.25;6178014;23;20031;-86
2023/10/02 06:16:40;;;;;;;12.80;5.25;;;;;;;14.00;73.04;100652.44;6153315;23;20012;-86
2023/10/02 06:19:13;;;;;;;12.82;4.88;;;;;;;13.98;72.96;100649.88;6151724;23;20020;-86
2023/10/02 06:22:04;;;;;;;13.30;5.30;;;;;;;14.00;72.45;100649.75;6201221;23;20041;-86
2023/10/02 06:24:31;;;;;;;11.75;4.75;;;;;;;14.00;72.10;100650.59;6204909;23;20074;-86
2023/10/02 06:26:58;;;;;;;11.82;4.97;;;;;;;14.00;72.08;100649.75;6200552;23;20020;-86
2023/10/02 06:29:31;;;;;;;11.43;5.25;;;;;;;13.99;71.87;100642.72;6176989;23;20106;-86
2023/10/02 06:31:59;;;;;;;10.98;5.28;;;;;;;14.00;72.07;100644.41;6152534;23;20024;-86
2023/10/02 06:34:36;;;;;;;13.75;5.53;;;;;;;14.03;71.77;100638.78;6202100;23;20047;-86
2023/10/02 06:37:19;;;;;;;13.57;5.43;;;;;;;14.01;71.82;100638.91;6201441;23;20027;-86
2023/10/02 06:40:02;;;;;;;15.55;5.60;;;;;;;14.04;71.99;100645.81;6179279;23;20021;-86
2023/10/02 06:42:31;;;;;;;15.85;5.90;;;;;;;14.07;71.98;100641.06;6158070;23;20016;-86
2023/10/02 06:45:01;;;;;;;11.50;5.43;;;;;;;14.09;72.05;100643.56;6178511;23;20383;-86
2023/10/02 06:47:30;;;;;;;12.23;5.25;;;;;;;14.09;72.28;100644.44;6178485;23;20027;-86
2023/10/02 06:50:21;;;;;;;16.08;5.78;;;;;;;14.11;72.04;100641.63;6153145;23;20532;-86
2023/10/02 06:52:51;;;;;;;13.25;5.70;;;;;;;14.14;72.49;100637.81;6183101;23;20024;-86
2023/10/02 06:55:19;;;;;;;13.82;5.60;;;;;;;14.15;72.64;100640.38;6202557;23;20016;-86
2023/10/02 06:57:52;;;;;;;13.00;5.65;;;;;;;14.21;73.01;100641.63;6202817;23;20020;-86
2023/10/02 07:00:21;;;;;;;13.90;6.35;;;;;;;14.22;73.02;100643.31;6179622;23;20016;-86
2023/10/02 07:02:57;;;;;;;15.45;5.90;;;;;;;14.26;73.22;100647.41;6204073;23;20024;-86
2023/10/02 07:05:35;;;;;;;14.77;5.45;;;;;;;14.30;73.05;100654.16;6180446;23;20506;-85
2023/10/02 07:08:26;;;;;;;12.25;6.00;;;;;;;14.32;73.27;100654.84;6178730;23;20100;-86
2023/10/02 07:10:57;;;;;;;13.85;5.22;;;;;;;14.38;73.13;100659.63;6201862;23;20021;-85
2023/10/02 07:13:24;;;;;;;16.55;6.07;;;;;;;14.40;73.39;100655.00;6177862;23;20032;-86
2023/10/02 07:15:55;;;;;;;16.25;5.43;;;;;;;14.44;73.57;100655.56;6179067;23;20022;-86
2023/10/02 07:18:37;;;;;;;11.80;5.28;;;;;;;14.42;73.85;100658.34;6153340;23;20020;-86
2023/10/02 07:21:08;;;;;;;14.80;5.05;;;;;;;14.51;73.73;100659.34;6178978;23;20096;-86
2023/10/02 07:23:37;;;;;;;10.90;5.13;;;;;;;14.56;73.77;100657.13;6178706;23;20036;-86
2023/10/02 07:26:15;;;;;;;15.40;6.50;;;;;;;14.62;73.80;100647.69;6181397;23;20024;-86
2023/10/02 07:28:50;;;;;;;17.02;5.70;;;;;;;14.60;73.80;100649.66;6203637;23;20024;-85
2023/10/02 07:31:18;;;;;;;12.50;5.25;;;;;;;14.63;74.07;100655.59;6179151;23;20404;-86
2023/10/02 07:33:45;;;;;;;13.35;6.03;;;;;;;14.66;74.42;100636.59;6203788;23;20024;-86
2023/10/02 07:36:15;;;;;;;12.48;6.13;;;;;;;14.68;74.48;100648.00;6178396;23;20101;-86
2023/10/02 07:38:45;;;;;;;13.80;6.05;;;;;;;14.69;74.43;100647.00;6177642;23;20104;-86
2023/10/02 07:41:16;;;;;;;11.60;5.45;;;;;;;14.68;74.57;100642.66;6202938;23;20043;-86
2023/10/02 07:43:44;;;;;;;14.35;5.78;;;;;;;14.74;74.42;100633.19;6202461;23;20027;-86
2023/10/02 07:46:21;;;;;;;13.27;5.82;;;;;;;14.81;74.38;100633.44;6178219;23;20397;-86
2023/10/02 07:48:57;;;;;;;13.77;5.57;;;;;;;14.82;74.29;100635.16;6203060;23;20619;-86
2023/10/02 07:51:35;;;;;;;15.55;6.65;;;;;;;14.82;74.28;100638.66;6180381;23;20099;-86
2023/10/02 07:54:06;;;;;;;11.48;5.57;;;;;;;14.82;74.61;100645.84;6203084;23;20341;-86
2023/10/02 07:56:35;;;;;;;16.50;6.63;;;;;;;14.90;74.59;100636.13;6178580;23;20042;-86
2023/10/02 07:59:03;;;;;;;11.45;5.80;;;;;;;14.97;74.53;100634.56;6153814;23;20020;-86
2023/10/02 08:01:33;;;;;;;13.32;6.05;;;;;;;15.01;74.55;100636.94;6203574;23;20051;-86
2023/10/02 08:04:04;;;;;;;13.30;5.80;;;;;;;15.03;74.43;100629.63;6178314;23;20023;-87
2023/10/02 08:11:50;;;;;;;15.07;5.88;;;;;;;15.16;74.24;100632.81;6177007;23;20025;-86
2023/10/02 08:17:27;;;;;;;15.52;5.90;;;;;;;15.23;74.51;100623.22;6177190;23;20485;-86
2023/10/02 08:19:56;;;;;;;12.73;5.80;;;;;;;15.25;74.27;100623.91;6182762;23;20682;-86
2023/10/02 08:22:37;;;;;;;15.70;6.80;;;;;;;15.30;74.11;100628.84;6202352;23;20065;-86
2023/10/02 08:25:13;;;;;;;17.00;6.13;;;;;;;15.33;74.35;100626.69;6202854;23;20028;-87
2023/10/02 08:27:46;;;;;;;15.98;6.95;;;;;;;15.36;74.33;100622.88;6155021;23;20012;-86
2023/10/02 08:30:27;;;;;;;14.63;6.70;;;;;;;15.40;74.54;100619.75;6152657;23;20514;-86
2023/10/02 08:33:05;;;;;;;15.55;6.22;;;;;;;15.45;74.39;100621.16;6181310;23;20028;-86
2023/10/02 08:35:37;;;;;;;17.50;7.45;;;;;;;15.47;74.67;100617.34;6155985;23;20020;-86
2023/10/02 08:38:07;;;;;;;13.07;6.35;;;;;;;15.52;74.73;100619.56;6177834;23;20095;-86
2023/10/02 08:40:34;;;;;;;13.63;6.70;;;;;;;15.55;74.94;100617.44;6205209;23;20032;-86
2023/10/02 08:43:05;;;;;;;13.13;6.22;;;;;;;15.58;74.96;100621.66;6204793;23;20079;-86
2023/10/02 08:45:33;;;;;;;14.88;6.50;;;;;;;15.64;75.06;100618.38;6178366;23;20016;-86
2023/10/02 08:48:07;;;;;;;16.67;6.60;;;;;;;15.67;75.19;100614.56;6179818;23;20021;-87
2023/10/02 08:50:37;;;;;;;11.15;6.00;;;;;;;15.70;75.66;100617.81;6154429;23;20087;-86
2023/10/02 08:53:09;;;;;;;15.52;6.63;;;;;;;15.75;75.73;100610.19;6204374;23;20096;-86
2023/10/02 08:55:51;;;;;;;13.35;5.95;;;;;;;15.78;75.67;100612.56;6203916;23;20075;-86
2023/10/02 08:58:22;;;;;;;17.93;7.13;;;;;;;15.80;76.21;100602.53;6180335;23;20078;-86
2023/10/02 09:03:42;;;;;;;15.18;6.25;;;;;;;15.86;76.54;100598.41;6202016;23;20417;-86
2023/10/02 09:11:41;;;;;;;11.80;5.55;;;;;;;15.99;76.32;100596.19;6200392;23;20028;-86
2023/10/02 09:17:12;;;;;;;12.20;5.40;;;;;;;16.04;77.04;100596.56;6180402;23;20082;-86
2023/10/02 09:19:48;;;;;;;13.88;6.20;;;;;;;16.09;77.03;100598.81;6201322;23;20016;-86
2023/10/02 09:22:16;;;;;;;18.30;6.13;;;;;;;16.14;77.14;100591.16;6179496;23;20016;-85
2023/10/02 09:24:57;;;;;;;12.93;6.20;;;;;;;16.18;77.27;100589.00;6202474;23;20028;-85
2023/10/02 09:27:28;;;;;;;13.98;5.90;;;;;;;16.21;77.48;100586.03;6181040;23;20340;-86
2023/10/02 09:32:50;;;;;;;15.98;6.93;;;;;;;16.30;77.66;100590.44;6203271;23;20020;-86
2023/10/02 09:35:32;;;;;;;11.80;5.40;;;;;;;16.34;77.35;100586.47;6180842;23;20055;-86
2023/10/02 09:38:23;;;;;;;14.93;6.38;;;;;;;16.39;77.52;100586.00;6161829;23;20092;-85
2023/10/02 09:40:59;;;;;;;13.13;5.78;;;;;;;16.42;77.67;100581.19;6202591;23;20012;-85
2023/10/02 09:43:31;;;;;;;13.88;6.38;;;;;;;16.48;77.63;100582.38;6178492;23;20160;-86
2023/10/02 09:46:15;;;;;;;19.05;6.88;;;;;;;16.51;78.04;100576.69;6202474;23;20469;-86
2023/10/02 09:51:25;;;;;;;15.27;6.47;;;;;;;16.56;78.29;100574.41;6201770;23;20049;-86
2023/10/02 09:54:13;;;;;;;15.00;6.63;;;;;;;16.60;78.17;100566.91;6177587;23;20115;-86
2023/10/02 09:57:04;;;;;;;13.48;6.65;;;;;;;16.61;78.80;100572.13;6203304;23;20021;-86
2023/10/02 09:59:46;;;;;;;16.65;6.85;;;;;;;16.70;78.67;100568.47;6178919;23;20045;-86
2023/10/02 10:05:00;;;;;;;15.65;6.25;;;;;;;16.78;78.68;100569.56;6156250;23;20100;-86
2023/10/02 10:07:52;;;;;;;15.30;6.57;;;;;;;16.79;78.62;100564.06;6204004;23;20453;-85
2023/10/02 10:10:28;;;;;;;12.48;5.70;;;;;;;16.87;78.55;100556.06;6203621;23;20754;-86
2023/10/02 10:12:58;;;;;;;16.45;6.65;;;;;;;16.93;78.72;100554.56;6206150;23;20493;-85
2023/10/02 10:15:31;;;;;;;12.88;6.07;;;;;;;16.96;78.48;100553.41;6180331;23;20021;-85
2023/10/02 10:17:58;;;;;;;14.40;6.68;;;;;;;17.00;78.52;100549.41;6203651;23;20020;-86
2023/10/02 10:20:27;;;;;;;16.77;6.97;;;;;;;17.03;78.67;100549.91;6155947;23;20056;-86
2023/10/02 10:22:57;;;;;;;15.98;6.38;;;;;;;17.08;79.07;100552.13;6204018;23;20055;-86
2023/10/02 10:25:32;;;;;;;16.17;6.97;;;;;;;17.11;79.02;100552.63;6180277;23;20483;-86
2023/10/02 10:28:08;;;;;;;18.15;7.55;;;;;;;17.16;79.40;100549.47;6204169;23;20017;-86
2023/10/02 10:30:39;;;;;;;13.40;7.10;;;;;;;17.19;79.39;100537.56;6181614;23;20031;-86
2023/10/02 10:35:57;;;;;;;15.55;6.68;;;;;;;17.29;79.57;100536.44;6205468;23;20024;-86
2023/10/02 10:38:44;;;;;;;14.55;6.35;;;;;;;17.32;79.87;100532.59;6156561;23;20096;-86
2023/10/02 10:41:31;;;;;;;12.98;6.50;;;;;;;17.31;80.31;100530.91;6178810;23;20028;-86
2023/10/02 10:43:59;;;;;;;14.65;6.53;;;;;;;17.39;79.72;100525.56;6180239;23;20026;-86
2023/10/02 10:46:28;;;;;;;17.38;6.35;;;;;;;17.44;79.80;100531.28;6179121;23;20087;-86
2023/10/02 10:49:08;;;;;;;17.15;6.95;;;;;;;17.47;80.00;100520.22;6203943;23;20036;-86
2023/10/02 10:51:39;;;;;;;15.43;6.78;;;;;;;17.54;80.53;100515.03;6203402;23;20047;-86
2023/10/02 10:54:18;;;;;;;15.20;6.68;;;;;;;17.58;80.43;100511.88;6178146;23;20481;-87
2023/10/02 10:57:19;;;;;;;13.32;6.47;;;;;;;17.63;80.13;100514.06;6229725;23;20020;-86
2023/10/02 10:59:46;;;;;;;12.73;6.70;;;;;;;17.67;80.58;100509.19;6183649;23;20044;-86
2023/10/02 11:02:15;;;;;;;14.98;6.88;;;;;;;17.72;80.68;100507.69;6203341;23;20345;-86
2023/10/02 11:04:49;;;;;;;16.75;7.28;;;;;;;17.75;80.82;100501.97;6154984;23;20024;-87
2023/10/02 11:07:21;;;;;;;12.43;6.40;;;;;;;17.82;80.50;100506.75;6203053;23;20036;-87
2023/10/02 11:10:19;;;;;;;13.18;6.05;;;;;;;17.81;80.65;100503.22;6205967;23;20036;-86
2023/10/02 11:12:56;;;;;;;16.05;6.85;;;;;;;17.90;80.98;100499.50;6179565;23;20087;-86
2023/10/02 11:15:46;;;;;;;18.00;7.28;;;;;;;17.94;80.65;100490.13;6206037;23;20326;-87
2023/10/02 11:18:18;;;;;;;14.93;6.65;;;;;;;17.97;81.15;100492.47;6154063;23;20013;-87
2023/10/02 11:20:57;;;;;;;15.38;7.13;;;;;;;18.03;80.71;100490.94;6206118;23;20023;-87
2023/10/02 11:23:43;;;;;;;13.82;6.93;;;;;;;18.07;81.10;100488.78;6179491;23;20105;-87
2023/10/02 11:26:15;;;;;;;16.05;6.78;;;;;;;18.14;80.89;100490.63;6204932;23;20016;-86
2023/10/02 11:28:44;;;;;;;15.70;7.18;;;;;;;18.18;80.51;100483.88;6179175;23;20024;-86
2023/10/02 11:31:30;;;;;;;16.25;6.45;;;;;;;18.17;80.37;100481.38;6178845;23;20352;-87
2023/10/02 11:34:01;;;;;;;17.33;7.65;;;;;;;18.23;79.73;100476.16;6201923;23;20801;-86
2023/10/02 11:36:53;;;;;;;13.45;6.43;;;;;;;18.27;79.94;100473.97;6205341;23;20029;-87
2023/10/02 11:39:20;;;;;;;13.93;6.63;;;;;;;18.30;80.32;100465.56;6180733;23;20029;-87
2023/10/02 11:41:47;;;;;;;16.15;6.95;;;;;;;18.32;80.51;100466.25;6179319;23;20024;-87
2023/10/02 11:44:15;;;;;;;18.65;7.50;;;;;;;18.37;79.77;100457.66;6177817;23;20025;-86
2023/10/02 11:46:43;;;;;;;17.65;7.20;;;;;;;18.42;79.51;100453.44;6155435;23;20028;-87
2023/10/02 11:49:12;;;;;;;15.00;6.63;;;;;;;18.47;79.57;100452.06;6155387;23;20025;-87
2023/10/02 11:51:40;;;;;;;17.40;7.70;;;;;;;18.52;79.55;100444.31;6179257;23;20487;-87
2023/10/02 11:54:09;;;;;;;16.20;6.85;;;;;;;18.56;79.61;100451.88;6177022;23;20021;-87
2023/10/02 11:56:35;;;;;;;16.23;7.07;;;;;;;18.60;79.21;100444.31;6153647;23;20079;-87
2023/10/02 11:59:02;;;;;;;15.75;7.25;;;;;;;18.61;78.55;100438.75;6178115;23;20020;-87
2023/10/02 12:01:29;;;;;;;13.98;7.30;;;;;;;18.65;79.06;100434.72;6180944;23;20025;-87
2023/10/02 12:04:00;;;;;;;16.10;7.25;;;;;;;18.66;78.70;100435.56;6206324;23;20445;-87
2023/10/02 12:06:28;;;;;;;15.55;6.95;;;;;;;18.71;79.19;100427.81;6179421;23;20099;-87
2023/10/02 12:08:56;;;;;;;16.05;6.22;;;;;;;18.72;79.26;100432.16;6154434;23;20036;-87
2023/10/02 12:11:25;;;;;;;16.02;6.88;;;;;;;18.74;78.96;100421.22;6154303;23;20433;-87
2023/10/02 12:13:52;;;;;;;18.55;7.35;;;;;;;18.78;79.14;100425.28;6154636;23;20024;-87
2023/10/02 12:16:21;;;;;;;17.50;7.53;;;;;;;18.80;78.76;100421.41;6180022;23;20016;-87
2023/10/02 12:18:52;;;;;;;18.05;7.28;;;;;;;18.86;78.25;100414.50;6131065;23;20095;-87
2023/10/02 12:21:21;;;;;;;17.48;7.28;;;;;;;18.90;78.27;100406.88;6179969;23;20044;-87
2023/10/02 12:23:48;;;;;;;16.48;7.15;;;;;;;18.92;78.16;100408.38;6203512;23;20031;-87
2023/10/02 12:26:17;;;;;;;15.50;7.30;;;;;;;18.96;77.64;100400.81;6179805;23;20318;-87
2023/10/02 12:28:44;;;;;;;17.17;6.88;;;;;;;18.99;77.55;100403.97;6154858;23;20070;-87
2023/10/02 12:31:15;;;;;;;14.95;6.95;;;;;;;19.04;77.92;100398.91;6177815;23;20035;-87
2023/10/02 12:33:43;;;;;;;15.13;6.90;;;;;;;19.05;78.13;100392.50;6181640;23;20330;-87
2023/10/02 12:36:22;;;;;;;14.93;6.88;;;;;;;19.01;78.13;100388.50;6179145;23;20341;-87
2023/10/02 12:38:50;;;;;;;13.70;7.07;;;;;;;19.08;78.53;100383.22;6203725;23;20021;-87
2023/10/02 12:41:20;;;;;;;17.55;7.63;;;;;;;19.07;78.45;100384.25;6204498;23;20405;-87
2023/10/02 12:43:55;;;;;;;17.65;7.65;;;;;;;19.11;78.52;100376.66;6179403;23;20115;-87
2023/10/02 12:46:23;;;;;;;12.20;6.85;;;;;;;19.15;79.01;100380.69;6202672;23;20334;-87
2023/10/02 12:48:50;;;;;;;15.75;7.28;;;;;;;19.17;78.61;100379.47;6204070;23;20100;-87
2023/10/02 12:51:19;;;;;;;19.83;7.90;;;;;;;19.22;78.50;100377.09;6176478;23;20055;-87
2023/10/02 12:53:45;;;;;;;19.85;7.63;;;;;;;19.25;78.69;100368.66;6178303;23;20073;-87
2023/10/02 12:56:22;;;;;;;16.73;6.75;;;;;;;19.31;78.67;100364.44;6154010;23;20029;-87
2023/10/02 12:58:51;;;;;;;17.55;7.30;;;;;;;19.35;78.29;100360.34;6153832;23;20032;-87
2023/10/02 13:01:24;;;;;;;16.65;7.15;;;;;;;19.37;78.64;100352.09;6179637;23;20027;-87